PKV weather

Pskov Airport
Pskov, Pskov Oblast, Russia

Public forecast

Using degrees Celsius for public forecast. Weather courtesy of forecast.io.

METAR (pilot weather report)

Retrieved 2019/03/27 00:00 UTC (4 minutes ago):

ULOO 270000Z AUTO 31003MPS 8000 // NCD M02/M04 Q1013 RMK QFE756

TAF (pilot weather forecast)

Forecast is more than 12 hours old.

Retrieved 2014/02/25 06:12 UTC (5 years ago):

TAF ULOO 250456Z 2506/2615 17004MPS 6000 BKN010 TEMPO 2506/2512 VRB02MPS 2100 BR BKN007